Terminal Aerodrome Forecast
Issued by NWS Charleston, WV

Current Version | Previous Version | Text Only | Print | Product List | Glossary Off
Versions: 1 2 3 4 5 6 7 8 9 10 11 12 13 14 15 16 17 18 19 20

099
FTUS41 KRLX 150253 AAA
TAFBKW
TAF AMD
KBKW 150253Z 1503/1524 15004KT 5SM SHRA BKN045
     FM150400 15005KT P6SM BKN030
     FM150800 17004KT 4SM SHRA OVC013
     FM151100 VRB03KT P6SM BKN008
     FM151800 30004KT P6SM SHRA VCTS BKN022CB
     FM152200 32004KT P6SM BKN035=

USA.gov is the U.S. government's official web portal to all federal, state and local government web resources and services.